Time;durP1;ratioP1;P1;durP2;ratioP2;P2;SDS_P1;SDS_P2;PMS_P1;PMS_P2;Temp;Humidity;BMP_temperature;BMP_pressure;BME280_temperature;BME280_humidity;BME280_pressure;Samples;Min_cycle;Max_cycle;Signal;HPM_P1;HPM_P2
2021/10/16 00:01:02;;;;;;;7.80;2.25;;;;;;;;;;5060436;28;20140;-66
2021/10/16 00:03:29;;;;;;;16.40;2.40;;;;;;;;;;5064837;28;20076;-66
2021/10/16 00:05:55;;;;;;;13.10;2.63;;;;;;;;;;5063017;28;20382;-66
2021/10/16 00:08:21;;;;;;;17.90;2.67;;;;;;;;;;5063131;28;20087;-66
2021/10/16 00:10:48;;;;;;;14.77;2.20;;;;;;;;;;5062267;28;20127;-66
2021/10/16 00:13:14;;;;;;;15.13;2.83;;;;;;;;;;5063033;28;20087;-66
2021/10/16 00:15:41;;;;;;;10.13;2.60;;;;;;;;;;5063172;28;20114;-66
2021/10/16 00:18:08;;;;;;;12.40;2.93;;;;;;;;;;5062318;28;20064;-66
2021/10/16 00:20:35;;;;;;;12.82;2.13;;;;;;;;;;5068814;28;20326;-66
2021/10/16 00:23:01;;;;;;;17.30;3.80;;;;;;;;;;5065989;28;20127;-66
2021/10/16 00:25:28;;;;;;;15.70;2.88;;;;;;;;;;5067562;28;20120;-66
2021/10/16 00:27:54;;;;;;;23.80;2.97;;;;;;;;;;5065961;28;20143;-66
2021/10/16 00:30:20;;;;;;;15.10;2.55;;;;;;;;;;5066348;28;20148;-66
2021/10/16 00:32:47;;;;;;;13.18;2.65;;;;;;;;;;5063463;28;20140;-66
2021/10/16 00:35:14;;;;;;;14.15;2.90;;;;;;;;;;5060135;28;20691;-66
2021/10/16 00:37:40;;;;;;;13.57;2.80;;;;;;;;;;5064371;28;20099;-66
2021/10/16 00:40:07;;;;;;;22.05;2.78;;;;;;;;;;5065518;28;20132;-66
2021/10/16 00:42:46;;;;;;;20.53;2.60;;;;;;;;;;5067338;28;20492;-66
2021/10/16 00:45:14;;;;;;;16.08;3.17;;;;;;;;;;5062605;28;20307;-66
2021/10/16 00:47:42;;;;;;;15.57;3.38;;;;;;;;;;5068520;28;20416;-66
2021/10/16 00:50:09;;;;;;;22.48;3.15;;;;;;;;;;5067379;28;20542;-66
2021/10/16 00:52:37;;;;;;;15.35;2.60;;;;;;;;;;5059749;28;20139;-66
2021/10/16 00:55:05;;;;;;;11.32;2.33;;;;;;;;;;5060096;28;20141;-66
2021/10/16 00:57:31;;;;;;;10.98;2.60;;;;;;;;;;5066248;28;20091;-66
2021/10/16 00:59:58;;;;;;;15.37;2.57;;;;;;;;;;5052850;28;20127;-66
2021/10/16 01:02:25;;;;;;;16.45;3.45;;;;;;;;;;5060250;28;20060;-66
2021/10/16 01:04:51;;;;;;;26.55;3.70;;;;;;;;;;5062280;28;20049;-66
2021/10/16 01:07:18;;;;;;;16.77;2.72;;;;;;;;;;5064423;28;20128;-66
2021/10/16 01:09:45;;;;;;;13.98;2.83;;;;;;;;;;5068085;28;20783;-66
2021/10/16 01:12:12;;;;;;;24.17;3.72;;;;;;;;;;5067662;28;20481;-66
2021/10/16 01:14:39;;;;;;;10.07;2.17;;;;;;;;;;5058293;28;20059;-66
2021/10/16 01:17:06;;;;;;;15.43;3.45;;;;;;;;;;5064628;28;20044;-65
2021/10/16 01:19:34;;;;;;;14.90;2.57;;;;;;;;;;5063660;28;20140;-66
2021/10/16 01:22:00;;;;;;;;;;;;;;;;;;5058362;28;20125;-66
2021/10/16 01:24:28;;;;;;;22.98;3.40;;;;;;;;;;5059160;28;20008;-66
2021/10/16 01:26:55;;;;;;;18.42;2.97;;;;;;;;;;5059532;28;20560;-66
2021/10/16 01:29:24;;;;;;;18.00;3.10;;;;;;;;;;5062325;28;20047;-66
2021/10/16 01:31:53;;;;;;;14.57;2.97;;;;;;;;;;5061051;28;20049;-66
2021/10/16 01:34:19;;;;;;;15.93;2.65;;;;;;;;;;5063694;28;20368;-66
2021/10/16 01:36:47;;;;;;;16.80;3.50;;;;;;;;;;5063886;28;20048;-66
2021/10/16 01:39:14;;;;;;;15.98;2.35;;;;;;;;;;5063494;28;20080;-66
2021/10/16 01:41:40;;;;;;;22.58;2.97;;;;;;;;;;5061195;28;20135;-66
2021/10/16 01:44:08;;;;;;;18.00;3.13;;;;;;;;;;5063465;28;20087;-66
2021/10/16 01:46:34;;;;;;;17.25;2.38;;;;;;;;;;5062945;28;20081;-66
2021/10/16 01:49:14;;;;;;;11.27;2.30;;;;;;;;;;5060718;28;20071;-66
2021/10/16 01:51:41;;;;;;;21.92;3.25;;;;;;;;;;5063397;28;20128;-66
2021/10/16 01:54:08;;;;;;;13.13;2.80;;;;;;;;;;5061662;28;20084;-66
2021/10/16 01:56:35;;;;;;;13.93;2.20;;;;;;;;;;5062364;28;20096;-66
2021/10/16 01:59:15;;;;;;;13.60;2.30;;;;;;;;;;5061007;28;20075;-66
2021/10/16 02:02:05;;;;;;;13.77;3.38;;;;;;;;;;5061257;28;20059;-66
2021/10/16 02:04:32;;;;;;;17.15;2.83;;;;;;;;;;5063440;28;20075;-66
2021/10/16 02:06:59;;;;;;;20.63;3.05;;;;;;;;;;5066865;28;20045;-66
2021/10/16 02:09:25;;;;;;;23.88;3.20;;;;;;;;;;5062901;28;20075;-66
2021/10/16 02:11:51;;;;;;;15.60;2.58;;;;;;;;;;5059485;28;20099;-66
2021/10/16 02:14:18;;;;;;;21.08;3.00;;;;;;;;;;5067260;28;20139;-66
2021/10/16 02:16:44;;;;;;;19.27;3.20;;;;;;;;;;5060079;28;20106;-65
2021/10/16 02:19:11;;;;;;;18.77;3.28;;;;;;;;;;5066433;28;20048;-66
2021/10/16 02:21:37;;;;;;;17.48;3.20;;;;;;;;;;5057980;28;20119;-66
2021/10/16 02:24:04;;;;;;;17.08;3.53;;;;;;;;;;5061250;28;20128;-66
2021/10/16 02:26:30;;;;;;;18.37;3.07;;;;;;;;;;5062996;28;20141;-66
2021/10/16 02:28:57;;;;;;;20.45;3.38;;;;;;;;;;5064769;28;20083;-66
2021/10/16 02:31:23;;;;;;;15.02;3.38;;;;;;;;;;5065827;28;20075;-65
2021/10/16 02:33:50;;;;;;;21.10;4.03;;;;;;;;;;5062235;28;20128;-66
2021/10/16 02:36:18;;;;;;;16.95;3.50;;;;;;;;;;5055669;28;20144;-65
2021/10/16 02:38:45;;;;;;;16.95;3.20;;;;;;;;;;5055983;28;20584;-65
2021/10/16 02:41:12;;;;;;;21.10;4.25;;;;;;;;;;5057380;28;20057;-65
2021/10/16 02:43:39;;;;;;;22.90;3.20;;;;;;;;;;5056513;28;20123;-65
2021/10/16 02:46:05;;;;;;;20.83;3.88;;;;;;;;;;5049212;28;20044;-65
2021/10/16 02:48:33;;;;;;;17.75;2.85;;;;;;;;;;5068067;28;20053;-65
2021/10/16 02:50:59;;;;;;;22.57;3.33;;;;;;;;;;5067222;28;20150;-65
2021/10/16 02:53:25;;;;;;;18.13;3.47;;;;;;;;;;5064621;28;20322;-65
2021/10/16 02:55:52;;;;;;;27.42;4.13;;;;;;;;;;5066478;28;20468;-66
2021/10/16 02:58:18;;;;;;;24.45;3.38;;;;;;;;;;5066173;28;20522;-66
2021/10/16 03:00:45;;;;;;;24.38;3.78;;;;;;;;;;5062918;28;20551;-66
2021/10/16 03:03:11;;;;;;;28.25;3.13;;;;;;;;;;5065903;28;20048;-65
2021/10/16 03:05:38;;;;;;;28.35;3.75;;;;;;;;;;5060675;28;20053;-66
2021/10/16 03:08:04;;;;;;;24.05;3.47;;;;;;;;;;5071622;28;20562;-66
2021/10/16 03:10:31;;;;;;;18.30;3.60;;;;;;;;;;5067782;28;20565;-65
2021/10/16 03:12:57;;;;;;;21.00;3.30;;;;;;;;;;5067986;28;20385;-66
2021/10/16 03:15:24;;;;;;;20.05;3.45;;;;;;;;;;5065496;28;20080;-66
2021/10/16 03:17:50;;;;;;;20.35;3.58;;;;;;;;;;5064048;28;20536;-65
2021/10/16 03:20:17;;;;;;;23.83;3.83;;;;;;;;;;5063246;28;20145;-65
2021/10/16 03:22:43;;;;;;;13.52;2.90;;;;;;;;;;5064958;28;20131;-65
2021/10/16 03:25:10;;;;;;;20.02;3.83;;;;;;;;;;5065280;28;20480;-66
2021/10/16 03:27:36;;;;;;;25.45;3.53;;;;;;;;;;5061166;28;20136;-66
2021/10/16 03:30:03;;;;;;;18.08;3.72;;;;;;;;;;5064996;28;20136;-66
2021/10/16 03:32:30;;;;;;;21.90;4.38;;;;;;;;;;5061768;28;20470;-65
2021/10/16 03:34:56;;;;;;;24.13;3.70;;;;;;;;;;5062656;28;20084;-65
2021/10/16 03:37:23;;;;;;;29.20;4.47;;;;;;;;;;5066690;28;20083;-66
2021/10/16 03:39:49;;;;;;;21.27;3.40;;;;;;;;;;5060227;28;20469;-66
2021/10/16 03:42:16;;;;;;;26.77;3.83;;;;;;;;;;5058904;28;20123;-65
2021/10/16 03:44:42;;;;;;;26.17;3.85;;;;;;;;;;5065584;28;20112;-66
2021/10/16 03:47:09;;;;;;;24.40;4.65;;;;;;;;;;5065248;28;20123;-65
2021/10/16 03:49:35;;;;;;;20.13;3.50;;;;;;;;;;5069056;28;20083;-66
2021/10/16 03:52:03;;;;;;;21.05;3.45;;;;;;;;;;5066102;28;20132;-66
2021/10/16 03:54:30;;;;;;;;;;;;;;;;;;5064594;28;20148;-65
2021/10/16 03:56:56;;;;;;;23.67;3.78;;;;;;;;;;5066143;28;19960;-65
2021/10/16 03:59:24;;;;;;;21.13;3.45;;;;;;;;;;5064773;28;20076;-66
2021/10/16 04:01:50;;;;;;;25.55;3.55;;;;;;;;;;5064213;28;20505;-66
2021/10/16 04:04:17;;;;;;;29.77;4.28;;;;;;;;;;5066609;28;20110;-65
2021/10/16 04:06:43;;;;;;;17.40;3.60;;;;;;;;;;5066829;28;20076;-66
2021/10/16 04:09:10;;;;;;;18.83;3.38;;;;;;;;;;5064404;28;20106;-65
2021/10/16 04:11:37;;;;;;;23.65;4.50;;;;;;;;;;5066421;28;20125;-65
2021/10/16 04:14:03;;;;;;;28.65;3.63;;;;;;;;;;5069732;28;20044;-66
2021/10/16 04:16:30;;;;;;;15.50;3.40;;;;;;;;;;5065127;28;20500;-66
2021/10/16 04:18:56;;;;;;;21.30;3.03;;;;;;;;;;5058785;28;20085;-66
2021/10/16 04:21:25;;;;;;;18.05;3.80;;;;;;;;;;5060736;28;20056;-65
2021/10/16 04:23:52;;;;;;;24.98;3.67;;;;;;;;;;5059560;28;20136;-66
2021/10/16 04:26:18;;;;;;;21.40;3.70;;;;;;;;;;5065309;28;20135;-65
2021/10/16 04:28:45;;;;;;;24.17;4.53;;;;;;;;;;5061563;28;20044;-65
2021/10/16 04:31:12;;;;;;;29.45;4.28;;;;;;;;;;5065306;28;20102;-66
2021/10/16 04:33:38;;;;;;;25.57;4.30;;;;;;;;;;5063091;28;20080;-65
2021/10/16 04:36:05;;;;;;;25.63;3.53;;;;;;;;;;5064123;28;20056;-66
2021/10/16 04:38:32;;;;;;;25.85;4.63;;;;;;;;;;5063766;28;20084;-66
2021/10/16 04:40:58;;;;;;;22.65;4.65;;;;;;;;;;5057969;28;20139;-66
2021/10/16 04:43:25;;;;;;;18.45;3.80;;;;;;;;;;5057968;28;20556;-66
2021/10/16 04:45:51;;;;;;;24.73;3.92;;;;;;;;;;5064449;28;20072;-66
2021/10/16 04:48:18;;;;;;;22.95;4.55;;;;;;;;;;5059688;28;20105;-66
2021/10/16 04:50:45;;;;;;;25.67;4.13;;;;;;;;;;5062411;28;20595;-66
2021/10/16 04:53:12;;;;;;;22.45;4.13;;;;;;;;;;5062377;28;20076;-66
2021/10/16 04:55:38;;;;;;;24.35;4.47;;;;;;;;;;5058360;28;20458;-65
2021/10/16 04:58:05;;;;;;;23.50;4.33;;;;;;;;;;5067000;28;20468;-66
2021/10/16 05:00:32;;;;;;;29.10;4.72;;;;;;;;;;5063639;28;20048;-66
2021/10/16 05:02:59;;;;;;;19.63;3.75;;;;;;;;;;5063042;28;20051;-66
2021/10/16 05:05:27;;;;;;;26.05;3.85;;;;;;;;;;5061366;28;20083;-66
2021/10/16 05:07:53;;;;;;;23.35;4.30;;;;;;;;;;5065939;28;20503;-66
2021/10/16 05:10:20;;;;;;;24.83;3.83;;;;;;;;;;5060000;28;20057;-66
2021/10/16 05:12:46;;;;;;;37.78;4.57;;;;;;;;;;5064171;28;20052;-66
2021/10/16 05:15:13;;;;;;;25.93;4.03;;;;;;;;;;5064726;28;20049;-66
2021/10/16 05:17:39;;;;;;;30.10;4.60;;;;;;;;;;5058464;28;20353;-66
2021/10/16 05:20:07;;;;;;;22.33;3.85;;;;;;;;;;5062471;28;20091;-66
2021/10/16 05:22:33;;;;;;;18.73;4.22;;;;;;;;;;5060434;28;20144;-67
2021/10/16 05:24:59;;;;;;;23.05;4.20;;;;;;;;;;5063302;28;20688;-66
2021/10/16 05:27:26;;;;;;;32.00;4.82;;;;;;;;;;5063905;28;20487;-66
2021/10/16 05:29:53;;;;;;;25.37;4.40;;;;;;;;;;5064522;28;20064;-66
2021/10/16 05:32:19;;;;;;;28.65;4.57;;;;;;;;;;5065328;28;20079;-66
2021/10/16 05:34:45;;;;;;;26.90;4.00;;;;;;;;;;5064315;28;20072;-67
2021/10/16 05:37:12;;;;;;;16.05;3.88;;;;;;;;;;5063036;28;20135;-66
2021/10/16 05:39:38;;;;;;;21.65;4.70;;;;;;;;;;5062223;28;20095;-66
2021/10/16 05:42:05;;;;;;;29.23;4.35;;;;;;;;;;5062078;28;20164;-66
2021/10/16 05:44:32;;;;;;;16.67;3.92;;;;;;;;;;5066912;28;20076;-66
2021/10/16 05:46:58;;;;;;;29.85;4.40;;;;;;;;;;5062045;28;20143;-66
2021/10/16 05:49:25;;;;;;;31.10;5.03;;;;;;;;;;5062175;28;20135;-66
2021/10/16 05:51:51;;;;;;;31.73;5.10;;;;;;;;;;5061507;28;20044;-66
2021/10/16 05:54:18;;;;;;;23.63;3.95;;;;;;;;;;5061979;28;20334;-66
2021/10/16 05:56:44;;;;;;;17.73;4.15;;;;;;;;;;5065179;28;20088;-66
2021/10/16 05:59:11;;;;;;;23.35;4.22;;;;;;;;;;5059459;28;20442;-66
2021/10/16 06:01:37;;;;;;;27.75;4.22;;;;;;;;;;5062018;28;20044;-66
2021/10/16 06:04:04;;;;;;;33.13;4.07;;;;;;;;;;5065822;28;20456;-66
2021/10/16 06:06:31;;;;;;;26.58;3.60;;;;;;;;;;5060650;28;20143;-66
2021/10/16 06:08:57;;;;;;;25.88;3.92;;;;;;;;;;5066371;28;20041;-66
2021/10/16 06:11:23;;;;;;;22.95;3.90;;;;;;;;;;5057480;28;20131;-66
2021/10/16 06:13:50;;;;;;;24.67;4.00;;;;;;;;;;5062242;28;20123;-66
2021/10/16 06:16:17;;;;;;;22.92;4.07;;;;;;;;;;5063639;28;20076;-66
2021/10/16 06:18:45;;;;;;;24.35;4.15;;;;;;;;;;5062092;28;20109;-66
2021/10/16 06:21:11;;;;;;;27.17;4.00;;;;;;;;;;5065528;28;20420;-66
2021/10/16 06:23:38;;;;;;;36.40;4.47;;;;;;;;;;5067196;28;20075;-66
2021/10/16 06:26:04;;;;;;;21.17;4.20;;;;;;;;;;5072800;28;20044;-66
2021/10/16 06:28:31;;;;;;;19.93;4.47;;;;;;;;;;5067422;28;20123;-66
2021/10/16 06:30:57;;;;;;;18.95;3.45;;;;;;;;;;5068194;28;20737;-66
2021/10/16 06:33:25;;;;;;;26.00;3.78;;;;;;;;;;5058684;28;20128;-66
2021/10/16 06:35:53;;;;;;;27.02;3.70;;;;;;;;;;5067082;28;20527;-66
2021/10/16 06:38:20;;;;;;;26.67;4.00;;;;;;;;;;5073712;28;20159;-66
2021/10/16 06:40:46;;;;;;;18.70;4.30;;;;;;;;;;5069266;28;20522;-66
2021/10/16 06:43:13;;;;;;;20.00;3.93;;;;;;;;;;5071167;28;20127;-66
2021/10/16 06:45:41;;;;;;;34.35;4.18;;;;;;;;;;5070346;28;20383;-66
2021/10/16 06:48:07;;;;;;;26.67;4.15;;;;;;;;;;5073794;28;20072;-66
2021/10/16 06:50:34;;;;;;;27.20;5.07;;;;;;;;;;5054138;28;20184;-66
2021/10/16 06:53:00;;;;;;;28.25;5.03;;;;;;;;;;5068741;28;20793;-66
2021/10/16 06:55:27;;;;;;;22.00;4.38;;;;;;;;;;5072455;28;20124;-67
2021/10/16 06:57:53;;;;;;;26.73;3.97;;;;;;;;;;5065825;28;20148;-66
2021/10/16 07:00:20;;;;;;;24.85;4.53;;;;;;;;;;5069928;28;20083;-66
2021/10/16 07:02:46;;;;;;;27.02;4.65;;;;;;;;;;5067458;28;20167;-67
2021/10/16 07:05:13;;;;;;;28.53;4.13;;;;;;;;;;5070322;28;20053;-66
2021/10/16 07:07:39;;;;;;;25.40;5.10;;;;;;;;;;5070071;28;20307;-67
2021/10/16 07:10:06;;;;;;;22.80;3.92;;;;;;;;;;5071145;28;20044;-67
2021/10/16 07:12:33;;;;;;;25.73;4.65;;;;;;;;;;5070574;28;20131;-67
2021/10/16 07:14:59;;;;;;;38.90;5.25;;;;;;;;;;5071761;28;20088;-67
2021/10/16 07:17:26;;;;;;;23.98;4.07;;;;;;;;;;5066349;28;20627;-66
2021/10/16 07:19:53;;;;;;;20.05;4.55;;;;;;;;;;5071200;28;20143;-67
2021/10/16 07:22:19;;;;;;;26.00;4.85;;;;;;;;;;5070390;28;20465;-67
2021/10/16 07:24:46;;;;;;;22.52;3.90;;;;;;;;;;5070582;28;20076;-67
2021/10/16 07:27:12;;;;;;;30.38;5.38;;;;;;;;;;5063173;28;20091;-67
2021/10/16 07:29:39;;;;;;;30.20;5.43;;;;;;;;;;5069764;28;20072;-67
2021/10/16 07:32:06;;;;;;;25.70;4.78;;;;;;;;;;5047879;28;20725;-67
2021/10/16 07:34:32;;;;;;;28.03;4.57;;;;;;;;;;5061883;28;20135;-67
2021/10/16 07:36:59;;;;;;;39.53;5.38;;;;;;;;;;5068453;28;20166;-66
2021/10/16 07:39:25;;;;;;;27.02;5.30;;;;;;;;;;5062244;28;20043;-67
2021/10/16 07:41:52;;;;;;;25.35;4.72;;;;;;;;;;5066437;28;20566;-67
2021/10/16 07:44:19;;;;;;;28.13;4.20;;;;;;;;;;5062365;28;20121;-67
2021/10/16 07:46:45;;;;;;;28.02;4.13;;;;;;;;;;5061685;28;20068;-67
2021/10/16 07:49:12;;;;;;;27.95;5.18;;;;;;;;;;5064754;28;20520;-67
2021/10/16 07:51:38;;;;;;;28.30;4.75;;;;;;;;;;5064991;28;20067;-67
2021/10/16 07:54:05;;;;;;;31.75;4.75;;;;;;;;;;5064645;28;20095;-67
2021/10/16 07:56:32;;;;;;;23.20;4.38;;;;;;;;;;5064876;28;20115;-67
2021/10/16 07:58:58;;;;;;;21.60;4.55;;;;;;;;;;5069686;28;20556;-67
2021/10/16 08:01:25;;;;;;;30.57;5.30;;;;;;;;;;5053834;28;20405;-67
2021/10/16 08:03:52;;;;;;;22.65;4.53;;;;;;;;;;5065885;28;20293;-67
2021/10/16 08:06:20;;;;;;;33.60;4.88;;;;;;;;;;5059198;28;20056;-67
2021/10/16 08:08:46;;;;;;;34.05;5.07;;;;;;;;;;5059913;28;20098;-67
2021/10/16 08:11:13;;;;;;;28.00;5.00;;;;;;;;;;5063340;28;20088;-67
2021/10/16 08:13:39;;;;;;;27.65;4.53;;;;;;;;;;5068435;28;20083;-67
2021/10/16 08:16:06;;;;;;;23.20;4.20;;;;;;;;;;5061326;28;20127;-67
2021/10/16 08:18:33;;;;;;;23.77;4.17;;;;;;;;;;5058896;28;20096;-67
2021/10/16 08:20:59;;;;;;;23.65;5.03;;;;;;;;;;5063705;28;20386;-67
2021/10/16 08:23:25;;;;;;;25.13;3.88;;;;;;;;;;5062762;28;20490;-67
2021/10/16 08:25:53;;;;;;;23.05;3.95;;;;;;;;;;5066355;28;20135;-67
2021/10/16 08:28:20;;;;;;;;;;;;;;;;;;5066518;28;20662;-67
2021/10/16 08:30:50;;;;;;;20.65;3.78;;;;;;;;;;5064982;28;19974;-67
2021/10/16 08:33:20;;;;;;;28.55;4.18;;;;;;;;;;5065690;28;20052;-67
2021/10/16 08:35:47;;;;;;;20.63;3.88;;;;;;;;;;5064766;28;20083;-67
2021/10/16 08:38:14;;;;;;;18.75;3.60;;;;;;;;;;5068500;28;20144;-67
2021/10/16 08:40:41;;;;;;;23.90;3.92;;;;;;;;;;5062479;28;20041;-67
2021/10/16 08:43:08;;;;;;;23.15;4.68;;;;;;;;;;5068374;28;20135;-67
2021/10/16 08:45:35;;;;;;;26.77;4.82;;;;;;;;;;5063113;28;20102;-67
2021/10/16 08:48:05;;;;;;;21.70;3.92;;;;;;;;;;5065450;28;20128;-67
2021/10/16 08:50:33;;;;;;;24.83;3.65;;;;;;;;;;5058677;28;20053;-67
2021/10/16 08:52:59;;;;;;;20.65;4.20;;;;;;;;;;5065590;28;20105;-67
2021/10/16 08:55:25;;;;;;;16.50;3.47;;;;;;;;;;5065899;28;20131;-67
2021/10/16 08:57:52;;;;;;;27.60;5.75;;;;;;;;;;5068723;28;20469;-67
2021/10/16 09:00:37;;;;;;;26.17;4.20;;;;;;;;;;5061657;28;20080;-67
2021/10/16 09:03:14;;;;;;;23.38;3.72;;;;;;;;;;5045704;28;20492;-67
2021/10/16 09:05:41;;;;;;;18.38;4.30;;;;;;;;;;5067470;28;20052;-67
2021/10/16 09:08:25;;;;;;;20.17;3.65;;;;;;;;;;5063413;28;20622;-67
2021/10/16 09:10:52;;;;;;;23.00;4.43;;;;;;;;;;5060003;28;20081;-67
2021/10/16 09:13:18;;;;;;;16.25;3.13;;;;;;;;;;5062013;28;20049;-67
2021/10/16 09:15:45;;;;;;;27.48;4.63;;;;;;;;;;5065208;28;20040;-67
2021/10/16 09:18:12;;;;;;;21.33;4.97;;;;;;;;;;5062541;28;20073;-67
2021/10/16 09:20:38;;;;;;;20.20;4.38;;;;;;;;;;5043864;28;20127;-67
2021/10/16 09:23:09;;;;;;;16.20;3.40;;;;;;;;;;5059200;28;20102;-67
2021/10/16 09:25:36;;;;;;;19.90;4.22;;;;;;;;;;5063351;28;20090;-67
2021/10/16 09:28:12;;;;;;;24.23;4.47;;;;;;;;;;5061825;28;20064;-67
2021/10/16 09:30:45;;;;;;;22.50;4.60;;;;;;;;;;5064223;28;20112;-67
2021/10/16 09:33:12;;;;;;;17.58;3.42;;;;;;;;;;5056037;28;20084;-68
2021/10/16 09:35:39;;;;;;;16.92;3.58;;;;;;;;;;5060547;28;20556;-68
2021/10/16 09:38:06;;;;;;;18.38;4.13;;;;;;;;;;5057681;28;20084;-67
2021/10/16 09:40:35;;;;;;;12.73;3.00;;;;;;;;;;5064446;28;20048;-68
2021/10/16 09:43:17;;;;;;;20.73;3.50;;;;;;;;;;5062329;28;20140;-67
2021/10/16 09:45:46;;;;;;;19.15;3.85;;;;;;;;;;5060780;28;20528;-67
2021/10/16 09:48:29;;;;;;;21.63;3.50;;;;;;;;;;5063048;28;20140;-68
2021/10/16 09:50:59;;;;;;;26.27;3.85;;;;;;;;;;5061368;28;20124;-67
2021/10/16 09:53:26;;;;;;;22.85;4.13;;;;;;;;;;5065889;28;20080;-68
2021/10/16 09:55:53;;;;;;;17.50;3.88;;;;;;;;;;5060303;28;20075;-67
2021/10/16 09:58:23;;;;;;;17.00;2.92;;;;;;;;;;5059343;28;20131;-67
2021/10/16 10:00:52;;;;;;;16.48;3.42;;;;;;;;;;5063171;28;20070;-67
2021/10/16 10:03:23;;;;;;;15.50;3.55;;;;;;;;;;5066274;28;20413;-67
2021/10/16 10:05:51;;;;;;;20.17;3.30;;;;;;;;;;5060285;28;20144;-67
2021/10/16 10:08:20;;;;;;;18.58;3.80;;;;;;;;;;5059807;28;20098;-67
2021/10/16 10:10:47;;;;;;;17.10;3.40;;;;;;;;;;5063115;28;20080;-67
2021/10/16 10:13:15;;;;;;;26.05;3.92;;;;;;;;;;5062767;28;20110;-67
2021/10/16 10:15:42;;;;;;;18.50;3.80;;;;;;;;;;5064900;28;20046;-67
2021/10/16 10:20:56;;;;;;;18.02;3.85;;;;;;;;;;5064701;28;20072;-67
2021/10/16 10:23:26;;;;;;;18.90;3.85;;;;;;;;;;5063565;28;20607;-67
2021/10/16 10:26:13;;;;;;;16.80;4.13;;;;;;;;;;5065487;28;20132;-67
2021/10/16 10:28:50;;;;;;;14.18;2.90;;;;;;;;;;5049481;28;20076;-67
2021/10/16 10:31:50;;;;;;;15.70;3.80;;;;;;;;;;5064719;28;20056;-67
2021/10/16 10:34:21;;;;;;;16.63;3.75;;;;;;;;;;5064707;28;20132;-67
2021/10/16 10:36:49;;;;;;;15.88;3.17;;;;;;;;;;5066565;28;20264;-68
2021/10/16 10:39:34;;;;;;;20.02;3.35;;;;;;;;;;5063744;28;20128;-68
2021/10/16 10:42:12;;;;;;;12.40;3.47;;;;;;;;;;5063492;28;20087;-67
2021/10/16 10:44:39;;;;;;;15.63;3.13;;;;;;;;;;5057498;28;20083;-67
2021/10/16 10:47:24;;;;;;;14.38;3.28;;;;;;;;;;5062733;28;20151;-68
2021/10/16 10:49:52;;;;;;;14.35;2.80;;;;;;;;;;5060473;28;20156;-68
2021/10/16 10:52:21;;;;;;;18.00;3.38;;;;;;;;;;5060734;28;20068;-68
2021/10/16 10:55:06;;;;;;;19.55;3.42;;;;;;;;;;5064777;28;20053;-68
2021/10/16 10:57:45;;;;;;;15.73;3.88;;;;;;;;;;5064439;28;20087;-68
2021/10/16 11:00:34;;;;;;;14.85;2.80;;;;;;;;;;5065028;28;20065;-67
2021/10/16 11:03:22;;;;;;;18.52;2.95;;;;;;;;;;5061934;28;20103;-67
2021/10/16 11:05:48;;;;;;;15.60;3.08;;;;;;;;;;5065584;28;20124;-67
2021/10/16 11:08:15;;;;;;;14.95;2.92;;;;;;;;;;5063234;28;20072;-67
2021/10/16 11:10:42;;;;;;;17.47;3.67;;;;;;;;;;5068803;28;20076;-67
2021/10/16 11:13:09;;;;;;;15.93;3.05;;;;;;;;;;5063994;28;20075;-68
2021/10/16 11:15:36;;;;;;;20.15;3.83;;;;;;;;;;5063802;28;20131;-67
2021/10/16 11:18:09;;;;;;;23.52;3.85;;;;;;;;;;5065812;28;20139;-68
2021/10/16 11:20:36;;;;;;;15.00;3.05;;;;;;;;;;5060989;28;20509;-67
2021/10/16 11:23:03;;;;;;;17.55;3.25;;;;;;;;;;5069432;28;20131;-67
2021/10/16 11:25:30;;;;;;;18.30;3.70;;;;;;;;;;5063844;28;20134;-67
2021/10/16 11:27:57;;;;;;;14.45;3.13;;;;;;;;;;5066068;28;20131;-67
2021/10/16 11:30:24;;;;;;;22.02;3.47;;;;;;;;;;5062895;28;20455;-67
2021/10/16 11:32:50;;;;;;;25.52;4.22;;;;;;;;;;5066610;28;20068;-67
2021/10/16 11:35:21;;;;;;;13.05;3.10;;;;;;;;;;5063845;28;20143;-68
2021/10/16 11:37:49;;;;;;;22.02;3.88;;;;;;;;;;5058021;28;20144;-67
2021/10/16 11:40:19;;;;;;;17.85;3.80;;;;;;;;;;5063469;28;20667;-67
2021/10/16 11:42:47;;;;;;;16.13;3.00;;;;;;;;;;5069959;28;20072;-67
2021/10/16 11:45:15;;;;;;;16.52;4.18;;;;;;;;;;5065459;28;20230;-67
2021/10/16 11:47:44;;;;;;;20.92;3.58;;;;;;;;;;5067321;28;20049;-67
2021/10/16 11:50:12;;;;;;;16.50;3.78;;;;;;;;;;5064861;28;20087;-68
2021/10/16 11:52:39;;;;;;;20.63;4.00;;;;;;;;;;5064716;28;20127;-67
2021/10/16 11:55:13;;;;;;;18.08;3.75;;;;;;;;;;5065251;28;20087;-67
2021/10/16 11:57:40;;;;;;;14.13;2.95;;;;;;;;;;5064771;28;20136;-67
2021/10/16 12:00:16;;;;;;;20.27;3.80;;;;;;;;;;5065195;28;20091;-67
2021/10/16 12:02:43;;;;;;;17.88;3.17;;;;;;;;;;5063511;28;20083;-67
2021/10/16 12:05:10;;;;;;;14.15;3.22;;;;;;;;;;5061492;28;20080;-67
2021/10/16 12:07:37;;;;;;;21.23;3.42;;;;;;;;;;5062159;28;20125;-67
2021/10/16 12:10:19;;;;;;;16.13;3.58;;;;;;;;;;5064812;28;20132;-67
2021/10/16 12:13:07;;;;;;;17.60;3.33;;;;;;;;;;5063837;28;20051;-68
2021/10/16 12:15:37;;;;;;;14.50;3.30;;;;;;;;;;5065751;28;20131;-67
2021/10/16 12:18:04;;;;;;;16.45;3.30;;;;;;;;;;5066357;28;20084;-67
2021/10/16 12:20:44;;;;;;;21.77;3.25;;;;;;;;;;5063887;28;20139;-68
2021/10/16 12:23:13;;;;;;;16.40;3.35;;;;;;;;;;5060241;28;20152;-67
2021/10/16 12:25:46;;;;;;;13.93;2.63;;;;;;;;;;5062028;28;20051;-67
2021/10/16 12:28:13;;;;;;;18.25;2.83;;;;;;;;;;5062616;28;20128;-68
2021/10/16 12:30:57;;;;;;;14.77;2.78;;;;;;;;;;5059391;28;20072;-68
2021/10/16 12:33:24;;;;;;;21.75;3.67;;;;;;;;;;5063297;28;20048;-67
2021/10/16 12:35:58;;;;;;;13.32;3.20;;;;;;;;;;5064173;28;20128;-67
2021/10/16 12:38:26;;;;;;;10.68;2.55;;;;;;;;;;5057954;28;20048;-67
2021/10/16 12:40:53;;;;;;;17.50;4.05;;;;;;;;;;5065473;28;20407;-67
2021/10/16 12:43:27;;;;;;;22.67;3.65;;;;;;;;;;5064507;28;20486;-67
2021/10/16 12:45:54;;;;;;;11.07;2.65;;;;;;;;;;5049866;28;20128;-67
2021/10/16 12:48:22;;;;;;;18.48;3.33;;;;;;;;;;5065668;28;20056;-67
2021/10/16 12:50:52;;;;;;;12.50;3.08;;;;;;;;;;5061482;28;20087;-67
2021/10/16 12:53:19;;;;;;;16.55;3.55;;;;;;;;;;5060797;28;20145;-67
2021/10/16 12:55:46;;;;;;;16.48;3.20;;;;;;;;;;5060597;28;20045;-68
2021/10/16 12:58:13;;;;;;;14.15;3.25;;;;;;;;;;5059671;28;20586;-67
2021/10/16 13:00:46;;;;;;;18.88;2.95;;;;;;;;;;5059397;28;20496;-67
2021/10/16 13:03:13;;;;;;;18.23;3.30;;;;;;;;;;5067387;28;20504;-67
2021/10/16 13:05:41;;;;;;;17.45;3.38;;;;;;;;;;5066297;28;20131;-67
2021/10/16 13:08:09;;;;;;;16.08;3.35;;;;;;;;;;5046386;28;20075;-67
2021/10/16 13:10:35;;;;;;;14.25;2.75;;;;;;;;;;5064961;28;20114;-67
2021/10/16 13:13:05;;;;;;;20.88;3.15;;;;;;;;;;5066772;28;20170;-67
2021/10/16 13:15:31;;;;;;;17.63;2.95;;;;;;;;;;5065418;28;20477;-67
2021/10/16 13:17:58;;;;;;;19.30;3.08;;;;;;;;;;5047743;28;20089;-67
2021/10/16 13:20:28;;;;;;;17.77;2.85;;;;;;;;;;5046965;28;20041;-67
2021/10/16 13:22:55;;;;;;;19.90;3.75;;;;;;;;;;5040847;28;20049;-67
2021/10/16 13:25:22;;;;;;;21.63;3.47;;;;;;;;;;5040867;28;20204;-67
2021/10/16 13:27:48;;;;;;;17.45;2.85;;;;;;;;;;5045568;28;20466;-67
2021/10/16 13:30:18;;;;;;;18.27;3.58;;;;;;;;;;5045765;28;20460;-67
2021/10/16 13:32:45;;;;;;;15.00;2.90;;;;;;;;;;5042188;28;20049;-67
2021/10/16 13:35:12;;;;;;;22.17;3.50;;;;;;;;;;5040000;28;20145;-67
2021/10/16 13:37:39;;;;;;;13.27;3.23;;;;;;;;;;5042164;28;20092;-67
2021/10/16 13:40:05;;;;;;;13.75;3.40;;;;;;;;;;5045295;28;20123;-67
2021/10/16 13:42:34;;;;;;;16.08;3.35;;;;;;;;;;5047735;28;20199;-67
2021/10/16 13:45:00;;;;;;;21.85;3.88;;;;;;;;;;5044289;28;20073;-67
2021/10/16 13:47:27;;;;;;;14.15;3.00;;;;;;;;;;5038673;28;20624;-67
2021/10/16 13:49:53;;;;;;;19.55;3.40;;;;;;;;;;5042422;28;20135;-67
2021/10/16 13:52:20;;;;;;;18.55;3.15;;;;;;;;;;5042228;28;20073;-67
2021/10/16 13:54:46;;;;;;;18.60;3.30;;;;;;;;;;5042462;28;20128;-67
2021/10/16 13:57:12;;;;;;;15.75;2.92;;;;;;;;;;5044253;28;20565;-67
2021/10/16 13:59:40;;;;;;;19.38;3.22;;;;;;;;;;5043734;28;20136;-67
2021/10/16 14:02:06;;;;;;;15.85;2.92;;;;;;;;;;5043409;28;20178;-67
2021/10/16 14:04:32;;;;;;;16.27;3.30;;;;;;;;;;5042776;28;20052;-67
2021/10/16 14:06:59;;;;;;;21.05;3.55;;;;;;;;;;5044397;28;20080;-67
2021/10/16 14:09:26;;;;;;;21.25;3.90;;;;;;;;;;5044052;28;20053;-67
2021/10/16 14:11:52;;;;;;;24.13;3.78;;;;;;;;;;5043469;28;20646;-67
2021/10/16 14:14:19;;;;;;;13.90;2.78;;;;;;;;;;5039953;28;20132;-67
2021/10/16 14:16:45;;;;;;;16.73;3.60;;;;;;;;;;5022022;28;20077;-67
2021/10/16 14:19:12;;;;;;;17.83;3.40;;;;;;;;;;5058559;28;20060;-67
2021/10/16 14:21:38;;;;;;;13.68;2.60;;;;;;;;;;5065460;28;20044;-67
2021/10/16 14:24:05;;;;;;;20.40;3.80;;;;;;;;;;5064796;28;20547;-68
2021/10/16 14:26:32;;;;;;;20.98;3.63;;;;;;;;;;5061837;28;20099;-67
2021/10/16 14:28:59;;;;;;;20.08;3.50;;;;;;;;;;5058080;28;20088;-67
2021/10/16 14:31:25;;;;;;;22.55;4.47;;;;;;;;;;5065625;28;20068;-67
2021/10/16 14:33:52;;;;;;;18.27;3.47;;;;;;;;;;5063995;28;20452;-67
2021/10/16 14:36:18;;;;;;;16.23;3.30;;;;;;;;;;5053954;28;20398;-67
2021/10/16 14:38:45;;;;;;;20.42;4.25;;;;;;;;;;5052315;28;20147;-67